Time;durP1;ratioP1;P1;durP2;ratioP2;P2;SDS_P1;SDS_P2;PMS_P1;PMS_P2;Temp;Humidity;BMP_temperature;BMP_pressure;BME280_temperature;BME280_humidity;BME280_pressure;Samples;Min_cycle;Max_cycle;Signal;HPM_P1;HPM_P2
2022/06/09 00:00:14;;;;;;;;;;;;;;;;;;2106168;28;19969;-45
2022/06/09 00:01:15;;;;;;;;;;;;;;;;;;2106313;28;20324;-46
2022/06/09 00:02:16;;;;;;;;;;;;;;;;;;2106167;28;19927;-46
2022/06/09 00:03:17;;;;;;;;;;;;;;;;;;2106278;28;19920;-45
2022/06/09 00:04:18;;;;;;;;;;;;;;;;;;2106080;28;20345;-46
2022/06/09 00:05:19;;;;;;;;;;;;;;;;;;2106244;28;20182;-46
2022/06/09 00:06:20;;;;;;;;;;;;;;;;;;2106072;28;19976;-45
2022/06/09 00:07:21;;;;;;;;;;;;;;;;;;2105664;28;20007;-46
2022/06/09 00:08:22;;;;;;;;;;;;;;;;;;2106155;28;20404;-46
2022/06/09 00:09:23;;;;;;;;;;;;;;;;;;2106100;28;19924;-46
2022/06/09 00:10:24;;;;;;;;;;;;;;;;;;2106173;28;19920;-47
2022/06/09 00:11:25;;;;;;;;;;;;;;;;;;2101318;28;19924;-47
2022/06/09 00:12:26;;;;;;;;;;;;;;;;;;2097796;28;19952;-46
2022/06/09 00:13:27;;;;;;;;;;;;;;;;;;2097732;28;19920;-46
2022/06/09 00:14:28;;;;;;;;;;;;;;;;;;2098929;28;20292;-46
2022/06/09 00:15:29;;;;;;;;;;;;;;;;;;2099374;28;19920;-46
2022/06/09 00:16:30;;;;;;;;;;;;;;;;;;2099142;28;20274;-46
2022/06/09 00:17:31;;;;;;;;;;;;;;;;;;2099368;28;19963;-46
2022/06/09 00:18:32;;;;;;;;;;;;;;;;;;2099147;28;20300;-46
2022/06/09 00:19:33;;;;;;;;;;;;;;;;;;2099069;28;20058;-47
2022/06/09 00:20:34;;;;;;;;;;;;;;;;;;2099229;28;19927;-46
2022/06/09 00:21:35;;;;;;;;;;;;;;;;;;2099300;28;19967;-46
2022/06/09 00:22:35;;;;;;;;;;;;;;;;;;2099342;28;20010;-44
2022/06/09 00:23:36;;;;;;;;;;;;;;;;;;2099164;28;20289;-43
2022/06/09 00:24:37;;;;;;;;;;;;;;;;;;2099217;28;19920;-44
2022/06/09 00:25:38;;;;;;;;;;;;;;;;;;2099298;28;20377;-43
2022/06/09 00:26:39;;;;;;;;;;;;;;;;;;2099221;28;19921;-43
2022/06/09 00:27:40;;;;;;;;;;;;;;;;;;2099267;28;20048;-43
2022/06/09 00:28:41;;;;;;;;;;;;;;;;;;2099055;28;19924;-44
2022/06/09 00:29:42;;;;;;;;;;;;;;;;;;2099142;28;19920;-43
2022/06/09 00:30:43;;;;;;;;;;;;;;;;;;2099056;28;19969;-43
2022/06/09 00:31:44;;;;;;;;;;;;;;;;;;2098913;28;19927;-44
2022/06/09 00:32:45;;;;;;;;;;;;;;;;;;2099130;28;19947;-43
2022/06/09 00:33:46;;;;;;;;;;;;;;;;;;2099211;28;19928;-43
2022/06/09 00:34:47;;;;;;;;;;;;;;;;;;2098996;28;19975;-43
2022/06/09 00:35:47;;;;;;;;;;;;;;;;;;2099039;28;19921;-43
2022/06/09 00:36:48;;;;;;;;;;;;;;;;;;2099061;28;19982;-44
2022/06/09 00:37:49;;;;;;;;;;;;;;;;;;2099163;28;19928;-43
2022/06/09 00:38:50;;;;;;;;;;;;;;;;;;2099025;28;19920;-44
2022/06/09 00:39:51;;;;;;;;;;;;;;;;;;2099076;28;20424;-44
2022/06/09 00:40:52;;;;;;;;;;;;;;;;;;2099164;28;19948;-43
2022/06/09 00:41:52;;;;;;;;;;;;;;;;;;2099096;28;19920;-43
2022/06/09 00:42:53;;;;;;;;;;;;;;;;;;2099241;28;20216;-45
2022/06/09 00:43:54;;;;;;;;;;;;;;;;;;2099027;28;19921;-46
2022/06/09 00:44:55;;;;;;;;;;;;;;;;;;2099101;28;19932;-45
2022/06/09 00:45:56;;;;;;;;;;;;;;;;;;2098955;28;20011;-45
2022/06/09 00:46:57;;;;;;;;;;;;;;;;;;2099040;28;20407;-45
2022/06/09 00:47:58;;;;;;;;;;;;;;;;;;2099164;28;20003;-45
2022/06/09 00:48:58;;;;;;;;;;;;;;;;;;2098960;28;20350;-45
2022/06/09 00:49:59;;;;;;;;;;;;;;;;;;2098903;28;19950;-45
2022/06/09 00:51:00;;;;;;;;;;;;;;;;;;2098950;28;20006;-45
2022/06/09 00:52:01;;;;;;;;;;;;;;;;;;2099030;28;20008;-45
2022/06/09 00:53:02;;;;;;;;;;;;;;;;;;2098945;28;19927;-46
2022/06/09 00:54:03;;;;;;;;;;;;;;;;;;2099041;28;19929;-46
2022/06/09 00:55:04;;;;;;;;;;;;;;;;;;2099104;28;20378;-45
2022/06/09 00:56:05;;;;;;;;;;;;;;;;;;2098746;28;19924;-46
2022/06/09 00:57:06;;;;;;;;;;;;;;;;;;2099091;28;19920;-45
2022/06/09 00:58:07;;;;;;;;;;;;;;;;;;2099034;28;19955;-45
2022/06/09 00:59:08;;;;;;;;;;;;;;;;;;2098824;28;20300;-45
2022/06/09 01:00:09;;;;;;;;;;;;;;;;;;2099052;28;19978;-45
2022/06/09 01:01:09;;;;;;;;;;;;;;;;;;2099109;28;19920;-45
2022/06/09 01:02:10;;;;;;;;;;;;;;;;;;2099042;28;20007;-45
2022/06/09 01:03:12;;;;;;;;;;;;;;;;;;2099260;28;19946;-43
2022/06/09 01:04:13;;;;;;;;;;;;;;;;;;2105117;28;20424;-43
2022/06/09 01:05:14;;;;;;;;;;;;;;;;;;2107319;28;19931;-43
2022/06/09 01:06:15;;;;;;;;;;;;;;;;;;2107111;28;20018;-43
2022/06/09 01:07:16;;;;;;;;;;;;;;;;;;2107220;28;20365;-43
2022/06/09 01:08:17;;;;;;;;;;;;;;;;;;2107114;28;19926;-43
2022/06/09 01:09:18;;;;;;;;;;;;;;;;;;2107621;28;19966;-45
2022/06/09 01:10:19;;;;;;;;;;;;;;;;;;2107217;28;19927;-46
2022/06/09 01:11:20;;;;;;;;;;;;;;;;;;2103078;28;20361;-45
2022/06/09 01:12:20;;;;;;;;;;;;;;;;;;2098890;28;19951;-45
2022/06/09 01:13:21;;;;;;;;;;;;;;;;;;2098974;28;19955;-45
2022/06/09 01:14:22;;;;;;;;;;;;;;;;;;2099078;28;20274;-44
2022/06/09 01:15:23;;;;;;;;;;;;;;;;;;2098973;28;19921;-43
2022/06/09 01:16:24;;;;;;;;;;;;;;;;;;2098923;28;20005;-43
2022/06/09 01:17:27;;;;;;;;;;;;;;;;;;2098726;28;19924;-44
2022/06/09 01:18:27;;;;;;;;;;;;;;;;;;2098808;28;20011;-43
2022/06/09 01:19:28;;;;;;;;;;;;;;;;;;2098835;28;19951;-43
2022/06/09 01:20:30;;;;;;;;;;;;;;;;;;2098965;28;19955;-44
2022/06/09 01:21:32;;;;;;;;;;;;;;;;;;2098900;28;19926;-43
2022/06/09 01:22:32;;;;;;;;;;;;;;;;;;2099094;28;20031;-45
2022/06/09 01:23:33;;;;;;;;;;;;;;;;;;2098702;28;20316;-45
2022/06/09 01:24:34;;;;;;;;;;;;;;;;;;2098671;28;20057;-43
2022/06/09 01:25:35;;;;;;;;;;;;;;;;;;2098643;28;19924;-43
2022/06/09 01:26:36;;;;;;;;;;;;;;;;;;2098569;28;20003;-43
2022/06/09 01:27:37;;;;;;;;;;;;;;;;;;2099011;28;19969;-43
2022/06/09 01:28:38;;;;;;;;;;;;;;;;;;2098691;28;20015;-43
2022/06/09 01:29:39;;;;;;;;;;;;;;;;;;2098984;28;19952;-46
2022/06/09 01:30:39;;;;;;;;;;;;;;;;;;2098663;28;20065;-45
2022/06/09 01:31:41;;;;;;;;;;;;;;;;;;2098795;28;20369;-45
2022/06/09 01:32:42;;;;;;;;;;;;;;;;;;2098674;28;20019;-45
2022/06/09 01:33:43;;;;;;;;;;;;;;;;;;2098726;28;20396;-46
2022/06/09 01:34:44;;;;;;;;;;;;;;;;;;2098667;28;19973;-45
2022/06/09 01:35:45;;;;;;;;;;;;;;;;;;2098581;28;20369;-45
2022/06/09 01:36:46;;;;;;;;;;;;;;;;;;2098661;28;19950;-45
2022/06/09 01:37:46;;;;;;;;;;;;;;;;;;2098675;28;20354;-45
2022/06/09 01:38:47;;;;;;;;;;;;;;;;;;2098595;28;19920;-45
2022/06/09 01:39:48;;;;;;;;;;;;;;;;;;2098720;28;19921;-45
2022/06/09 01:40:49;;;;;;;;;;;;;;;;;;2098829;28;19974;-45
2022/06/09 01:41:50;;;;;;;;;;;;;;;;;;2098609;28;20469;-45
2022/06/09 01:42:51;;;;;;;;;;;;;;;;;;2098667;28;19927;-46
2022/06/09 01:43:52;;;;;;;;;;;;;;;;;;2098811;28;19920;-43
2022/06/09 01:44:53;;;;;;;;;;;;;;;;;;2098655;28;19920;-43
2022/06/09 01:45:54;;;;;;;;;;;;;;;;;;2098558;28;20275;-43
2022/06/09 01:46:55;;;;;;;;;;;;;;;;;;2098599;28;20781;-43
2022/06/09 01:47:56;;;;;;;;;;;;;;;;;;2098840;28;19928;-45
2022/06/09 01:48:56;;;;;;;;;;;;;;;;;;2098832;28;19927;-46
2022/06/09 01:49:57;;;;;;;;;;;;;;;;;;2098935;28;19946;-45
2022/06/09 01:50:59;;;;;;;;;;;;;;;;;;2098770;28;19940;-43
2022/06/09 01:51:59;;;;;;;;;;;;;;;;;;2098736;28;20053;-43
2022/06/09 01:53:00;;;;;;;;;;;;;;;;;;2098546;28;19950;-43
2022/06/09 01:54:01;;;;;;;;;;;;;;;;;;2099084;28;19925;-46
2022/06/09 01:55:03;;;;;;;;;;;;;;;;;;2098597;28;19930;-46
2022/06/09 01:56:03;;;;;;;;;;;;;;;;;;2098571;28;19921;-45
2022/06/09 01:57:04;;;;;;;;;;;;;;;;;;2098520;28;19927;-46
2022/06/09 01:58:05;;;;;;;;;;;;;;;;;;2098544;28;19924;-45
2022/06/09 01:59:06;;;;;;;;;;;;;;;;;;2098630;28;20361;-45
2022/06/09 02:00:12;;;;;;;;;;;;;;;;;;2102929;28;19920;-43
2022/06/09 02:01:13;;;;;;;;;;;;;;;;;;2106765;28;20028;-43
2022/06/09 02:02:16;;;;;;;;;;;;;;;;;;2107248;28;19919;-45
2022/06/09 02:03:17;;;;;;;;;;;;;;;;;;2106982;28;19920;-45
2022/06/09 02:04:20;;;;;;;;;;;;;;;;;;2107106;28;19920;-44
2022/06/09 02:05:21;;;;;;;;;;;;;;;;;;2107064;28;19972;-43
2022/06/09 02:06:21;;;;;;;;;;;;;;;;;;2107025;28;20010;-45
2022/06/09 02:07:22;;;;;;;;;;;;;;;;;;2107411;28;20285;-45
2022/06/09 02:08:23;;;;;;;;;;;;;;;;;;2106822;28;20289;-45
2022/06/09 02:09:24;;;;;;;;;;;;;;;;;;2106778;28;19920;-46
2022/06/09 02:10:25;;;;;;;;;;;;;;;;;;2106891;28;19963;-46
2022/06/09 02:11:27;;;;;;;;;;;;;;;;;;2101974;28;20011;-46
2022/06/09 02:12:28;;;;;;;;;;;;;;;;;;2098431;28;19965;-45
2022/06/09 02:13:29;;;;;;;;;;;;;;;;;;2098544;28;20282;-45
2022/06/09 02:14:29;;;;;;;;;;;;;;;;;;2098416;28;20024;-45
2022/06/09 02:15:30;;;;;;;;;;;;;;;;;;2098409;28;19927;-45
2022/06/09 02:16:31;;;;;;;;;;;;;;;;;;2098658;28;20349;-46
2022/06/09 02:17:32;;;;;;;;;;;;;;;;;;2098435;28;19946;-46
2022/06/09 02:18:33;;;;;;;;;;;;;;;;;;2098587;28;19935;-46
2022/06/09 02:19:34;;;;;;;;;;;;;;;;;;2098390;28;19921;-45
2022/06/09 02:20:35;;;;;;;;;;;;;;;;;;2098531;28;19924;-46
2022/06/09 02:21:36;;;;;;;;;;;;;;;;;;2098311;28;20331;-46
2022/06/09 02:22:37;;;;;;;;;;;;;;;;;;2098397;28;19921;-46
2022/06/09 02:23:38;;;;;;;;;;;;;;;;;;2098358;28;19920;-45
2022/06/09 02:24:39;;;;;;;;;;;;;;;;;;2098422;28;19924;-45
2022/06/09 02:25:40;;;;;;;;;;;;;;;;;;2098616;28;19920;-45
2022/06/09 02:26:41;;;;;;;;;;;;;;;;;;2098265;28;20022;-45
2022/06/09 02:27:42;;;;;;;;;;;;;;;;;;2098309;28;19920;-45
2022/06/09 02:28:42;;;;;;;;;;;;;;;;;;2098427;28;19924;-45
2022/06/09 02:29:43;;;;;;;;;;;;;;;;;;2098922;28;20324;-43
2022/06/09 02:30:44;;;;;;;;;;;;;;;;;;2098209;28;19928;-43
2022/06/09 02:31:50;;;;;;;;;;;;;;;;;;2098669;28;19920;-45
2022/06/09 02:32:51;;;;;;;;;;;;;;;;;;2098622;28;19920;-45
2022/06/09 02:33:52;;;;;;;;;;;;;;;;;;2098779;28;20320;-45
2022/06/09 02:34:53;;;;;;;;;;;;;;;;;;2098658;28;20007;-43
2022/06/09 02:35:54;;;;;;;;;;;;;;;;;;2098186;28;20409;-43
2022/06/09 02:36:55;;;;;;;;;;;;;;;;;;2097780;28;20008;-43
2022/06/09 02:37:56;;;;;;;;;;;;;;;;;;2098360;28;19924;-45
2022/06/09 02:38:57;;;;;;;;;;;;;;;;;;2098257;28;19920;-45
2022/06/09 02:39:58;;;;;;;;;;;;;;;;;;2098272;28;19921;-45
2022/06/09 02:40:58;;;;;;;;;;;;;;;;;;2098171;28;20093;-45
2022/06/09 02:41:59;;;;;;;;;;;;;;;;;;2098409;28;19965;-45
2022/06/09 02:43:00;;;;;;;;;;;;;;;;;;2098519;28;20003;-43
2022/06/09 02:44:02;;;;;;;;;;;;;;;;;;2098412;28;19967;-45
2022/06/09 02:45:03;;;;;;;;;;;;;;;;;;2098281;28;19931;-45
2022/06/09 02:46:04;;;;;;;;;;;;;;;;;;2098303;28;20027;-46
2022/06/09 02:47:04;;;;;;;;;;;;;;;;;;2098188;28;19924;-45
2022/06/09 02:48:05;;;;;;;;;;;;;;;;;;2098289;28;20035;-45
2022/06/09 02:49:06;;;;;;;;;;;;;;;;;;2098210;28;19927;-45
2022/06/09 02:50:07;;;;;;;;;;;;;;;;;;2098451;28;19920;-43
2022/06/09 02:51:08;;;;;;;;;;;;;;;;;;2098418;28;20015;-43
2022/06/09 02:52:09;;;;;;;;;;;;;;;;;;2098346;28;20007;-43
2022/06/09 02:53:10;;;;;;;;;;;;;;;;;;2098134;28;19921;-43
2022/06/09 02:54:12;;;;;;;;;;;;;;;;;;2098265;28;19920;-43
2022/06/09 02:55:12;;;;;;;;;;;;;;;;;;2098213;28;20008;-43
2022/06/09 02:56:13;;;;;;;;;;;;;;;;;;2100341;28;19920;-43
2022/06/09 02:57:15;;;;;;;;;;;;;;;;;;2106928;28;19963;-43
2022/06/09 02:58:15;;;;;;;;;;;;;;;;;;2106422;28;20277;-46
2022/06/09 02:59:16;;;;;;;;;;;;;;;;;;2106685;28;19962;-46
2022/06/09 03:00:17;;;;;;;;;;;;;;;;;;2106874;28;20373;-44
2022/06/09 03:01:18;;;;;;;;;;;;;;;;;;2106841;28;20004;-47
2022/06/09 03:02:19;;;;;;;;;;;;;;;;;;2106448;28;20002;-46
2022/06/09 03:03:20;;;;;;;;;;;;;;;;;;2106635;28;20018;-45
2022/06/09 03:04:21;;;;;;;;;;;;;;;;;;2106784;28;20003;-43
2022/06/09 03:05:22;;;;;;;;;;;;;;;;;;2106786;28;20384;-46
2022/06/09 03:06:22;;;;;;;;;;;;;;;;;;2106422;28;20391;-46
2022/06/09 03:07:24;;;;;;;;;;;;;;;;;;2106435;28;19959;-46
2022/06/09 03:08:26;;;;;;;;;;;;;;;;;;2106849;28;20344;-43
2022/06/09 03:09:27;;;;;;;;;;;;;;;;;;2106419;28;20399;-44
2022/06/09 03:10:28;;;;;;;;;;;;;;;;;;2106324;28;20353;-43
2022/06/09 03:11:29;;;;;;;;;;;;;;;;;;2100922;28;20015;-43
2022/06/09 03:12:29;;;;;;;;;;;;;;;;;;2098584;28;19924;-46
2022/06/09 03:13:30;;;;;;;;;;;;;;;;;;2098323;28;20372;-43
2022/06/09 03:14:31;;;;;;;;;;;;;;;;;;2098416;28;19920;-43
2022/06/09 03:15:32;;;;;;;;;;;;;;;;;;2098295;28;19920;-43
2022/06/09 03:16:33;;;;;;;;;;;;;;;;;;2098003;28;20003;-43
2022/06/09 03:17:35;;;;;;;;;;;;;;;;;;2089138;28;20377;-46
2022/06/09 03:18:36;;;;;;;;;;;;;;;;;;2089371;28;20434;-46
2022/06/09 03:19:37;;;;;;;;;;;;;;;;;;2098019;28;20011;-46
2022/06/09 03:20:38;;;;;;;;;;;;;;;;;;2098183;28;19920;-43
2022/06/09 03:21:39;;;;;;;;;;;;;;;;;;2098255;28;19926;-46
2022/06/09 03:22:40;;;;;;;;;;;;;;;;;;2098154;28;19963;-43
2022/06/09 03:23:41;;;;;;;;;;;;;;;;;;2100342;28;20023;-43
2022/06/09 03:24:42;;;;;;;;;;;;;;;;;;2106359;28;19939;-43
2022/06/09 03:25:43;;;;;;;;;;;;;;;;;;2106285;28;20002;-43
2022/06/09 03:26:44;;;;;;;;;;;;;;;;;;2106329;28;20387;-43
2022/06/09 03:27:45;;;;;;;;;;;;;;;;;;2106384;28;19999;-43
2022/06/09 03:28:46;;;;;;;;;;;;;;;;;;2106540;28;19931;-45
2022/06/09 03:29:47;;;;;;;;;;;;;;;;;;2106310;28;20373;-45
2022/06/09 03:30:47;;;;;;;;;;;;;;;;;;2106207;28;20019;-46
2022/06/09 03:31:48;;;;;;;;;;;;;;;;;;2106461;28;19970;-43
2022/06/09 03:32:49;;;;;;;;;;;;;;;;;;2106516;28;19924;-45
2022/06/09 03:33:50;;;;;;;;;;;;;;;;;;2106434;28;19935;-45
2022/06/09 03:34:51;;;;;;;;;;;;;;;;;;2106217;28;20284;-45
2022/06/09 03:35:52;;;;;;;;;;;;;;;;;;2106154;28;19920;-45
2022/06/09 03:36:53;;;;;;;;;;;;;;;;;;2106373;28;19956;-45
2022/06/09 03:37:53;;;;;;;;;;;;;;;;;;2106341;28;20010;-47
2022/06/09 03:38:55;;;;;;;;;;;;;;;;;;2106327;28;19982;-47
2022/06/09 03:39:55;;;;;;;;;;;;;;;;;;2106435;28;19924;-45
2022/06/09 03:40:56;;;;;;;;;;;;;;;;;;2106150;28;19919;-46
2022/06/09 03:41:57;;;;;;;;;;;;;;;;;;2106255;28;20365;-46
2022/06/09 03:42:58;;;;;;;;;;;;;;;;;;2106215;28;19927;-45
2022/06/09 03:43:59;;;;;;;;;;;;;;;;;;2106281;28;20372;-45
2022/06/09 03:45:00;;;;;;;;;;;;;;;;;;2106215;28;19961;-46
2022/06/09 03:46:01;;;;;;;;;;;;;;;;;;2106113;28;20011;-45
2022/06/09 03:47:02;;;;;;;;;;;;;;;;;;2106393;28;19923;-46
2022/06/09 03:48:02;;;;;;;;;;;;;;;;;;2106021;28;19946;-45
2022/06/09 03:49:04;;;;;;;;;;;;;;;;;;2106372;28;20365;-46
2022/06/09 03:50:04;;;;;;;;;;;;;;;;;;2106100;28;20006;-45
2022/06/09 03:51:05;;;;;;;;;;;;;;;;;;2106369;28;19924;-43
2022/06/09 03:52:06;;;;;;;;;;;;;;;;;;2106444;28;20418;-44
2022/06/09 03:53:10;;;;;;;;;;;;;;;;;;2105881;28;19920;-45
2022/06/09 03:54:12;;;;;;;;;;;;;;;;;;2106094;28;19970;-45
2022/06/09 03:55:13;;;;;;;;;;;;;;;;;;2106255;28;20022;-45
2022/06/09 03:56:14;;;;;;;;;;;;;;;;;;2106214;28;19941;-43
2022/06/09 03:57:14;;;;;;;;;;;;;;;;;;2106144;28;19920;-43
2022/06/09 03:58:15;;;;;;;;;;;;;;;;;;2106049;28;20376;-42
2022/06/09 03:59:16;;;;;;;;;;;;;;;;;;2106007;28;19924;-42
2022/06/09 04:00:17;;;;;;;;;;;;;;;;;;2106300;28;19924;-42
2022/06/09 04:01:18;;;;;;;;;;;;;;;;;;2106324;28;20420;-42
2022/06/09 04:02:19;;;;;;;;;;;;;;;;;;2106153;28;20014;-43
2022/06/09 04:03:20;;;;;;;;;;;;;;;;;;2106106;28;20001;-43
2022/06/09 04:04:21;;;;;;;;;;;;;;;;;;2106081;28;19920;-42
2022/06/09 04:05:22;;;;;;;;;;;;;;;;;;2105889;28;20414;-42
2022/06/09 04:06:23;;;;;;;;;;;;;;;;;;2106311;28;20011;-43
2022/06/09 04:07:23;;;;;;;;;;;;;;;;;;2106459;28;19954;-42
2022/06/09 04:08:24;;;;;;;;;;;;;;;;;;2106101;28;20003;-42
2022/06/09 04:09:25;;;;;;;;;;;;;;;;;;2106487;28;19961;-43
2022/06/09 04:10:26;;;;;;;;;;;;;;;;;;2106026;28;19966;-42
2022/06/09 04:11:27;;;;;;;;;;;;;;;;;;2100767;28;20457;-42
2022/06/09 04:12:28;;;;;;;;;;;;;;;;;;2097714;28;20018;-43
2022/06/09 04:13:29;;;;;;;;;;;;;;;;;;2097669;28;19920;-42
2022/06/09 04:14:30;;;;;;;;;;;;;;;;;;2097853;28;19920;-46
2022/06/09 04:15:30;;;;;;;;;;;;;;;;;;2098007;28;19920;-43
2022/06/09 04:16:32;;;;;;;;;;;;;;;;;;2097637;28;20454;-44
2022/06/09 04:17:32;;;;;;;;;;;;;;;;;;2097677;28;20324;-42
2022/06/09 04:18:34;;;;;;;;;;;;;;;;;;2097866;28;19942;-42
2022/06/09 04:19:35;;;;;;;;;;;;;;;;;;2097740;28;19959;-43
2022/06/09 04:20:37;;;;;;;;;;;;;;;;;;2097685;28;20312;-45
2022/06/09 04:21:38;;;;;;;;;;;;;;;;;;2097891;28;20308;-43
2022/06/09 04:22:39;;;;;;;;;;;;;;;;;;2097826;28;19960;-45
2022/06/09 04:23:41;;;;;;;;;;;;;;;;;;2097616;28;19943;-44
2022/06/09 04:24:42;;;;;;;;;;;;;;;;;;2097811;28;20369;-43
2022/06/09 04:25:43;;;;;;;;;;;;;;;;;;2097762;28;19928;-42
2022/06/09 04:26:45;;;;;;;;;;;;;;;;;;2097776;28;20474;-43
2022/06/09 04:27:46;;;;;;;;;;;;;;;;;;2097785;28;20011;-44
2022/06/09 04:28:47;;;;;;;;;;;;;;;;;;2097663;28;20029;-42
2022/06/09 04:29:48;;;;;;;;;;;;;;;;;;2097526;28;19920;-44
2022/06/09 04:30:48;;;;;;;;;;;;;;;;;;2097578;28;19920;-43
2022/06/09 04:31:49;;;;;;;;;;;;;;;;;;2097577;28;19943;-42
2022/06/09 04:32:50;;;;;;;;;;;;;;;;;;2097707;28;19927;-42
2022/06/09 04:33:51;;;;;;;;;;;;;;;;;;2097748;28;20001;-43
2022/06/09 04:34:53;;;;;;;;;;;;;;;;;;2097622;28;20007;-43
2022/06/09 04:35:53;;;;;;;;;;;;;;;;;;2097535;28;19995;-43
2022/06/09 04:36:54;;;;;;;;;;;;;;;;;;2097661;28;20384;-42
2022/06/09 04:38:01;;;;;;;;;;;;;;;;;;2097632;28;19982;-42
2022/06/09 04:39:03;;;;;;;;;;;;;;;;;;2097650;28;20024;-44
2022/06/09 04:40:03;;;;;;;;;;;;;;;;;;2097760;28;20341;-45
2022/06/09 04:41:04;;;;;;;;;;;;;;;;;;2097834;28;21363;-44
2022/06/09 04:42:05;;;;;;;;;;;;;;;;;;2097644;28;20063;-45
2022/06/09 04:43:06;;;;;;;;;;;;;;;;;;2097575;28;19932;-45
2022/06/09 04:44:07;;;;;;;;;;;;;;;;;;2097715;28;19920;-44
2022/06/09 04:45:08;;;;;;;;;;;;;;;;;;2097490;28;20381;-44
2022/06/09 04:46:09;;;;;;;;;;;;;;;;;;2097521;28;20017;-45
2022/06/09 04:47:10;;;;;;;;;;;;;;;;;;2097677;28;20309;-45
2022/06/09 04:48:11;;;;;;;;;;;;;;;;;;2097783;28;20381;-42
2022/06/09 04:49:12;;;;;;;;;;;;;;;;;;2103623;28;19920;-42
2022/06/09 04:50:13;;;;;;;;;;;;;;;;;;2105875;28;20016;-42
2022/06/09 04:51:14;;;;;;;;;;;;;;;;;;2105917;28;20015;-43
2022/06/09 04:52:15;;;;;;;;;;;;;;;;;;2106297;28;19943;-44
2022/06/09 04:53:16;;;;;;;;;;;;;;;;;;2106090;28;20385;-45
2022/06/09 04:54:17;;;;;;;;;;;;;;;;;;2106142;28;20232;-46
2022/06/09 04:55:18;;;;;;;;;;;;;;;;;;2106084;28;19920;-45
2022/06/09 04:56:19;;;;;;;;;;;;;;;;;;2106010;28;19920;-43
2022/06/09 04:57:20;;;;;;;;;;;;;;;;;;2105904;28;19961;-43
2022/06/09 04:58:21;;;;;;;;;;;;;;;;;;2106011;28;20010;-43
2022/06/09 04:59:22;;;;;;;;;;;;;;;;;;2105864;28;20281;-43
2022/06/09 05:00:23;;;;;;;;;;;;;;;;;;2106967;28;19920;-44
2022/06/09 05:01:24;;;;;;;;;;;;;;;;;;2107252;28;19962;-43
2022/06/09 05:02:26;;;;;;;;;;;;;;;;;;2107398;28;19920;-43
2022/06/09 05:03:26;;;;;;;;;;;;;;;;;;2107332;28;20006;-43
2022/06/09 05:04:27;;;;;;;;;;;;;;;;;;2107246;28;19920;-44
2022/06/09 05:05:29;;;;;;;;;;;;;;;;;;2107429;28;19924;-44
2022/06/09 05:06:30;;;;;;;;;;;;;;;;;;2107299;28;19959;-45
2022/06/09 05:07:31;;;;;;;;;;;;;;;;;;2107441;28;20022;-45
2022/06/09 05:08:32;;;;;;;;;;;;;;;;;;2107198;28;19955;-45
2022/06/09 05:09:33;;;;;;;;;;;;;;;;;;2107329;28;20010;-45
2022/06/09 05:10:34;;;;;;;;;;;;;;;;;;2107237;28;20002;-45
2022/06/09 05:11:34;;;;;;;;;;;;;;;;;;2101083;28;19966;-46
2022/06/09 05:12:35;;;;;;;;;;;;;;;;;;2099154;28;20282;-45
2022/06/09 05:13:36;;;;;;;;;;;;;;;;;;2098961;28;19930;-44
2022/06/09 05:14:37;;;;;;;;;;;;;;;;;;2099029;28;19920;-43
2022/06/09 05:15:38;;;;;;;;;;;;;;;;;;2098807;28;19920;-44
2022/06/09 05:16:39;;;;;;;;;;;;;;;;;;2098908;28;20324;-42
2022/06/09 05:17:40;;;;;;;;;;;;;;;;;;2098758;28;20000;-43
2022/06/09 05:18:41;;;;;;;;;;;;;;;;;;2098902;28;20004;-43
2022/06/09 05:19:42;;;;;;;;;;;;;;;;;;2099055;28;19921;-43
2022/06/09 05:20:43;;;;;;;;;;;;;;;;;;2099175;28;19943;-45
2022/06/09 05:21:43;;;;;;;;;;;;;;;;;;2098738;28;19977;-46
2022/06/09 05:22:44;;;;;;;;;;;;;;;;;;2098931;28;20262;-46
2022/06/09 05:23:45;;;;;;;;;;;;;;;;;;2098782;28;20031;-46
2022/06/09 05:24:46;;;;;;;;;;;;;;;;;;2098895;28;19930;-46
2022/06/09 05:25:47;;;;;;;;;;;;;;;;;;2098724;28;19958;-46
2022/06/09 05:26:48;;;;;;;;;;;;;;;;;;2098968;28;20483;-47
2022/06/09 05:27:49;;;;;;;;;;;;;;;;;;2098950;28;19920;-45
2022/06/09 05:28:50;;;;;;;;;;;;;;;;;;2099031;28;20009;-46
2022/06/09 05:29:51;;;;;;;;;;;;;;;;;;2098927;28;19966;-43
2022/06/09 05:30:52;;;;;;;;;;;;;;;;;;2098716;28;20443;-45
2022/06/09 05:31:52;;;;;;;;;;;;;;;;;;2098978;28;19974;-46
2022/06/09 05:32:53;;;;;;;;;;;;;;;;;;2098756;28;19920;-46
2022/06/09 05:33:54;;;;;;;;;;;;;;;;;;2099056;28;19932;-46
2022/06/09 05:34:55;;;;;;;;;;;;;;;;;;2098911;28;20396;-46
2022/06/09 05:35:56;;;;;;;;;;;;;;;;;;2098616;28;20047;-43
2022/06/09 05:36:57;;;;;;;;;;;;;;;;;;2098817;28;19966;-44
2022/06/09 05:44:54;;;;;;;;;;;;;;;;;;2098884;28;20288;-43
2022/06/09 05:45:54;;;;;;;;;;;;;;;;;;2098512;28;20368;-43
2022/06/09 05:46:56;;;;;;;;;;;;;;;;;;2098632;28;19920;-43
2022/06/09 05:47:56;;;;;;;;;;;;;;;;;;2098925;28;20025;-45
2022/06/09 05:48:57;;;;;;;;;;;;;;;;;;2098553;28;19924;-46
2022/06/09 05:49:58;;;;;;;;;;;;;;;;;;2098781;28;20011;-44
2022/06/09 05:50:59;;;;;;;;;;;;;;;;;;2098537;28;19966;-46
2022/06/09 05:52:00;;;;;;;;;;;;;;;;;;2098611;28;20025;-44
2022/06/09 05:53:01;;;;;;;;;;;;;;;;;;2099098;28;19924;-42
2022/06/09 05:54:03;;;;;;;;;;;;;;;;;;2098951;28;19924;-42
2022/06/09 05:55:03;;;;;;;;;;;;;;;;;;2098612;28;20007;-42
2022/06/09 05:56:04;;;;;;;;;;;;;;;;;;2098524;28;20381;-42
2022/06/09 05:57:05;;;;;;;;;;;;;;;;;;2098547;28;20057;-42
2022/06/09 05:58:06;;;;;;;;;;;;;;;;;;2098706;28;19977;-42
2022/06/09 05:59:07;;;;;;;;;;;;;;;;;;2098862;28;19920;-42
2022/06/09 06:00:08;;;;;;;;;;;;;;;;;;2098691;28;19920;-46
2022/06/09 06:01:09;;;;;;;;;;;;;;;;;;2098617;28;20018;-45
2022/06/09 06:02:10;;;;;;;;;;;;;;;;;;2098640;28;20007;-46
2022/06/09 06:03:12;;;;;;;;;;;;;;;;;;2098658;28;19978;-45
2022/06/09 06:04:13;;;;;;;;;;;;;;;;;;2098552;28;19924;-45
2022/06/09 06:06:35;;;;;;;;;;;;;;;;;;2097976;28;19968;-44
2022/06/09 06:07:43;;;;;;;;;;;;;;;;;;2098665;28;19956;-42
2022/06/09 06:08:43;;;;;;;;;;;;;;;;;;2098483;28;19920;-42
2022/06/09 06:09:44;;;;;;;;;;;;;;;;;;2098669;28;19927;-47
2022/06/09 06:10:45;;;;;;;;;;;;;;;;;;2098485;28;19927;-48
2022/06/09 06:11:47;;;;;;;;;;;;;;;;;;2098630;28;20385;-47
2022/06/09 06:12:48;;;;;;;;;;;;;;;;;;2098656;28;20363;-42
2022/06/09 06:13:49;;;;;;;;;;;;;;;;;;2098365;28;19956;-42
2022/06/09 06:14:50;;;;;;;;;;;;;;;;;;2098459;28;20115;-43
2022/06/09 06:15:50;;;;;;;;;;;;;;;;;;2098885;28;19966;-45
2022/06/09 06:16:52;;;;;;;;;;;;;;;;;;2098576;28;20404;-47
2022/06/09 06:17:54;;;;;;;;;;;;;;;;;;2098370;28;19997;-43
2022/06/09 06:18:55;;;;;;;;;;;;;;;;;;2099214;28;20346;-45
2022/06/09 06:19:56;;;;;;;;;;;;;;;;;;2098705;28;19920;-45
2022/06/09 06:20:56;;;;;;;;;;;;;;;;;;2098613;28;19964;-43
2022/06/09 06:21:57;;;;;;;;;;;;;;;;;;2103024;28;20234;-43
2022/06/09 06:22:58;;;;;;;;;;;;;;;;;;2106721;28;19968;-44
2022/06/09 06:23:59;;;;;;;;;;;;;;;;;;2106875;28;20110;-42
2022/06/09 06:25:02;;;;;;;;;;;;;;;;;;2107128;28;20323;-45
2022/06/09 06:26:03;;;;;;;;;;;;;;;;;;2107060;28;19955;-45
2022/06/09 06:27:04;;;;;;;;;;;;;;;;;;2106795;28;19920;-46
2022/06/09 06:28:18;;;;;;;;;;;;;;;;;;2106905;28;20270;-45
2022/06/09 06:29:19;;;;;;;;;;;;;;;;;;2106869;28;19927;-43
2022/06/09 06:30:20;;;;;;;;;;;;;;;;;;2106878;28;19928;-42
2022/06/09 06:31:21;;;;;;;;;;;;;;;;;;2106473;28;20444;-43
2022/06/09 06:32:22;;;;;;;;;;;;;;;;;;2107039;28;19920;-43
2022/06/09 06:33:23;;;;;;;;;;;;;;;;;;2107002;28;20010;-46
2022/06/09 06:34:24;;;;;;;;;;;;;;;;;;2106613;28;20272;-48
2022/06/09 06:35:25;;;;;;;;;;;;;;;;;;2106760;28;20089;-47
2022/06/09 06:36:26;;;;;;;;;;;;;;;;;;2106913;28;19920;-43
2022/06/09 06:37:26;;;;;;;;;;;;;;;;;;2106763;28;19924;-45
2022/06/09 06:38:27;;;;;;;;;;;;;;;;;;2106665;28;20362;-45
2022/06/09 06:39:28;;;;;;;;;;;;;;;;;;2106894;28;20331;-42
2022/06/09 06:40:29;;;;;;;;;;;;;;;;;;2106667;28;19951;-43
2022/06/09 06:41:30;;;;;;;;;;;;;;;;;;2106448;28;20259;-43
2022/06/09 06:42:31;;;;;;;;;;;;;;;;;;2106767;28;19919;-42
2022/06/09 06:43:32;;;;;;;;;;;;;;;;;;2106566;28;20334;-43
2022/06/09 06:44:33;;;;;;;;;;;;;;;;;;2106589;28;19955;-43
2022/06/09 06:45:34;;;;;;;;;;;;;;;;;;2106852;28;19969;-43
2022/06/09 06:46:35;;;;;;;;;;;;;;;;;;2106557;28;19943;-44
2022/06/09 06:47:36;;;;;;;;;;;;;;;;;;2106541;28;20014;-43
2022/06/09 06:48:41;;;;;;;;;;;;;;;;;;2106847;28;20327;-44
2022/06/09 06:49:43;;;;;;;;;;;;;;;;;;2106434;28;19970;-44
2022/06/09 06:50:44;;;;;;;;;;;;;;;;;;2106973;28;20253;-43
2022/06/09 06:51:45;;;;;;;;;;;;;;;;;;2106574;28;19920;-44
2022/06/09 06:52:45;;;;;;;;;;;;;;;;;;2106755;28;19973;-44
2022/06/09 06:53:47;;;;;;;;;;;;;;;;;;2106535;28;19931;-46
2022/06/09 06:54:47;;;;;;;;;;;;;;;;;;2106581;28;19923;-43
2022/06/09 06:55:48;;;;;;;;;;;;;;;;;;2106522;28;20388;-45
2022/06/09 06:56:49;;;;;;;;;;;;;;;;;;2106480;28;20014;-45
2022/06/09 06:57:50;;;;;;;;;;;;;;;;;;2106539;28;20365;-43
2022/06/09 06:58:51;;;;;;;;;;;;;;;;;;2106486;28;19927;-43
2022/06/09 06:59:52;;;;;;;;;;;;;;;;;;2106732;28;20023;-46
2022/06/09 07:00:53;;;;;;;;;;;;;;;;;;2106504;28;19981;-47
2022/06/09 07:01:54;;;;;;;;;;;;;;;;;;2107029;28;19924;-48
2022/06/09 07:02:55;;;;;;;;;;;;;;;;;;2106473;28;19966;-46
2022/06/09 07:04:15;;;;;;;;;;;;;;;;;;2106666;28;19924;-46
2022/06/09 07:05:16;;;;;;;;;;;;;;;;;;2106537;28;19928;-46